Time;durP1;ratioP1;P1;durP2;ratioP2;P2;SDS_P1;SDS_P2;PMS_P1;PMS_P2;Temp;Humidity;BMP_temperature;BMP_pressure;BME280_temperature;BME280_humidity;BME280_pressure;Samples;Min_cycle;Max_cycle;Signal;HPM_P1;HPM_P2
2023/03/04 00:01:51;;;;;;;;;36.75;31.75;;;;;;;;5044475;28;61874;-79
2023/03/04 00:04:17;;;;;;;;;41.67;35.33;;;;;;;;5043685;28;63699;-79
2023/03/04 00:06:42;;;;;;;;;52.75;38.50;;;;;;;;5044119;28;61997;-79
2023/03/04 00:09:08;;;;;;;;;46.50;34.50;;;;;;;;5044105;28;61955;-79
2023/03/04 00:11:33;;;;;;;;;45.75;35.25;;;;;;;;5062387;28;61858;-79
2023/03/04 00:13:58;;;;;;;;;44.25;33.75;;;;;;;;5043277;28;64924;-79
2023/03/04 00:16:27;;;;;;;;;44.50;34.25;;;;;;;;5044301;28;62028;-79
2023/03/04 00:18:53;;;;;;;;;41.00;34.75;;;;;;;;5043989;28;61819;-79
2023/03/04 00:21:18;;;;;;;;;63.50;35.75;;;;;;;;5044085;28;61859;-79
2023/03/04 00:23:43;;;;;;;;;42.25;34.75;;;;;;;;5043514;28;63807;-79
2023/03/04 00:26:09;;;;;;;;;47.25;35.75;;;;;;;;5052328;28;61736;-79
2023/03/04 00:28:34;;;;;;;;;57.00;35.75;;;;;;;;5082213;28;61738;-79
2023/03/04 00:30:59;;;;;;;;;41.75;34.50;;;;;;;;5064268;28;61703;-79
2023/03/04 00:33:25;;;;;;;;;45.75;36.50;;;;;;;;5081883;28;63192;-79
2023/03/04 00:35:50;;;;;;;;;46.75;36.50;;;;;;;;5067818;28;62006;-79
2023/03/04 00:38:15;;;;;;;;;46.25;35.25;;;;;;;;5067899;28;62226;-79
2023/03/04 00:40:41;;;;;;;;;48.75;35.25;;;;;;;;5067191;28;62044;-79
2023/03/04 00:43:06;;;;;;;;;44.25;31.75;;;;;;;;5066856;28;63565;-78
2023/03/04 00:45:31;;;;;;;;;48.00;33.50;;;;;;;;5086151;28;61807;-79
2023/03/04 00:47:56;;;;;;;;;65.33;38.33;;;;;;;;5085857;28;61886;-79
2023/03/04 00:50:22;;;;;;;;;57.50;40.50;;;;;;;;5067583;28;62138;-79
2023/03/04 00:52:47;;;;;;;;;48.00;40.25;;;;;;;;5066666;28;63357;-79
2023/03/04 00:55:12;;;;;;;;;52.33;38.33;;;;;;;;5085351;28;62032;-78
2023/03/04 00:57:37;;;;;;;;;65.67;44.33;;;;;;;;5085839;28;61751;-78
2023/03/04 01:00:04;;;;;;;;;53.50;38.00;;;;;;;;5085548;28;61788;-78
2023/03/04 01:02:29;;;;;;;;;59.33;42.00;;;;;;;;5085120;28;61929;-78
2023/03/04 01:04:54;;;;;;;;;46.50;38.00;;;;;;;;5085765;28;61794;-78
2023/03/04 01:07:20;;;;;;;;;55.50;40.00;;;;;;;;5067185;28;61797;-78
2023/03/04 01:09:45;;;;;;;;;40.67;37.00;;;;;;;;5085284;28;61724;-78
2023/03/04 01:12:10;;;;;;;;;54.00;39.67;;;;;;;;5066198;28;63809;-78
2023/03/04 01:14:36;;;;;;;;;54.67;40.00;;;;;;;;5085566;28;61823;-78
2023/03/04 01:17:01;;;;;;;;;45.00;37.25;;;;;;;;5085584;28;61775;-78
2023/03/04 01:19:26;;;;;;;;;42.50;39.25;;;;;;;;5067373;28;61757;-78
2023/03/04 01:21:51;;;;;;;;;52.00;35.50;;;;;;;;5066400;28;64662;-78
2023/03/04 01:24:17;;;;;;;;;53.67;43.33;;;;;;;;5084569;28;61964;-78
2023/03/04 01:26:42;;;;;;;;;46.33;40.00;;;;;;;;5085004;27;62173;-78
2023/03/04 01:29:07;;;;;;;;;36.75;30.00;;;;;;;;5067066;28;61849;-79
2023/03/04 01:31:32;;;;;;;;;52.25;39.25;;;;;;;;5084205;28;61998;-79
2023/03/04 01:33:58;;;;;;;;;45.25;38.25;;;;;;;;5066763;28;61838;-79
2023/03/04 01:36:23;;;;;;;;;46.25;37.75;;;;;;;;5085167;27;61950;-79
2023/03/04 01:38:48;;;;;;;;;52.75;40.00;;;;;;;;5084897;27;61750;-79
2023/03/04 01:41:16;;;;;;;;;49.00;39.33;;;;;;;;5066056;28;63522;-79
2023/03/04 01:43:41;;;;;;;;;50.67;42.67;;;;;;;;5066791;28;61850;-79
2023/03/04 01:46:09;;;;;;;;;66.67;46.33;;;;;;;;5065903;28;61861;-79
2023/03/04 01:48:36;;;;;;;;;67.00;47.67;;;;;;;;5085364;28;61981;-79
2023/03/04 01:51:05;;;;;;;;;48.33;39.33;;;;;;;;5066211;28;63961;-79
2023/03/04 01:53:30;;;;;;;;;56.33;40.00;;;;;;;;5084479;28;61763;-79
2023/03/04 01:55:57;;;;;;;;;47.00;37.25;;;;;;;;5084836;27;61786;-79
2023/03/04 01:58:24;;;;;;;;;56.75;39.00;;;;;;;;5084914;28;61921;-79
2023/03/04 02:00:50;;;;;;;;;54.33;38.67;;;;;;;;5065608;28;65194;-79
2023/03/04 02:03:18;;;;;;;;;51.75;42.50;;;;;;;;5066262;28;61858;-79
2023/03/04 02:05:45;;;;;;;;;49.00;33.75;;;;;;;;5066612;28;61907;-79
2023/03/04 02:08:11;;;;;;;;;44.75;34.75;;;;;;;;5066232;28;61946;-79
2023/03/04 02:10:37;;;;;;;;;49.25;36.75;;;;;;;;5083818;28;61739;-79
2023/03/04 02:13:02;;;;;;;;;49.00;40.67;;;;;;;;5084406;27;61716;-79
2023/03/04 02:15:28;;;;;;;;;36.00;29.50;;;;;;;;5066127;27;61762;-79
2023/03/04 02:17:54;;;;;;;;;54.00;36.67;;;;;;;;5066599;28;62081;-79
2023/03/04 02:20:22;;;;;;;;;47.67;33.00;;;;;;;;5065538;27;65154;-79
2023/03/04 02:23:10;;;;;;;;;53.33;39.67;;;;;;;;5084105;28;61891;-79
2023/03/04 02:25:54;;;;;;;;;38.00;31.33;;;;;;;;5083876;27;61726;-79
2023/03/04 02:28:20;;;;;;;;;51.00;39.67;;;;;;;;5084537;28;61882;-79
2023/03/04 02:30:45;;;;;;;;;41.33;34.00;;;;;;;;5083478;28;62946;-79
2023/03/04 02:33:15;;;;;;;;;54.33;32.00;;;;;;;;5065823;28;61858;-79
2023/03/04 02:35:41;;;;;;;;;42.33;35.67;;;;;;;;5084120;27;61799;-79
2023/03/04 02:38:06;;;;;;;;;55.00;40.33;;;;;;;;5066033;28;61821;-79
2023/03/04 02:40:33;;;;;;;;;45.67;31.33;;;;;;;;5064769;28;63692;-79
2023/03/04 02:42:59;;;;;;;;;45.33;38.67;;;;;;;;5065764;28;61755;-79
2023/03/04 02:45:30;;;;;;;;;56.33;36.00;;;;;;;;5065746;28;61880;-79
2023/03/04 02:47:56;;;;;;;;;51.33;36.00;;;;;;;;5065834;28;61827;-79
2023/03/04 02:50:21;;;;;;;;;42.00;30.67;;;;;;;;5064965;28;64925;-79
2023/03/04 02:52:47;;;;;;;;;48.00;41.00;;;;;;;;5083593;27;61898;-79
2023/03/04 02:55:12;;;;;;;;;52.33;34.67;;;;;;;;5065608;28;62052;-79
2023/03/04 02:57:37;;;;;;;;;65.00;43.33;;;;;;;;5082860;28;62136;-79
2023/03/04 03:00:03;;;;;;;;;61.00;40.67;;;;;;;;5064690;28;64024;-79
2023/03/04 03:02:28;;;;;;;;;52.67;41.00;;;;;;;;5065301;28;61876;-79
2023/03/04 03:04:53;;;;;;;;;56.67;38.00;;;;;;;;5083783;27;61806;-79
2023/03/04 03:07:19;;;;;;;;;53.75;40.00;;;;;;;;5065604;28;62089;-79
2023/03/04 03:09:44;;;;;;;;;57.33;38.33;;;;;;;;5082853;27;62955;-79
2023/03/04 03:12:09;;;;;;;;;49.67;42.00;;;;;;;;5083338;28;61764;-79
2023/03/04 03:14:34;;;;;;;;;55.67;32.67;;;;;;;;5083609;28;61784;-79
2023/03/04 03:17:00;;;;;;;;;52.33;41.00;;;;;;;;5083760;27;61933;-79
2023/03/04 03:19:25;;;;;;;;;52.00;40.67;;;;;;;;5064461;28;63588;-79
2023/03/04 03:21:50;;;;;;;;;54.33;34.67;;;;;;;;5065071;28;61822;-79
2023/03/04 03:24:16;;;;;;;;;52.00;39.00;;;;;;;;5083079;28;61760;-79
2023/03/04 03:26:41;;;;;;;;;48.67;41.00;;;;;;;;5083201;27;61855;-79
2023/03/04 03:29:06;;;;;;;;;57.67;39.33;;;;;;;;5064161;28;63669;-79
2023/03/04 03:31:32;;;;;;;;;51.67;40.00;;;;;;;;5064742;28;61838;-79
2023/03/04 03:33:57;;;;;;;;;51.00;36.67;;;;;;;;5083129;28;61636;-79
2023/03/04 03:36:22;;;;;;;;;44.00;37.75;;;;;;;;5065218;28;62070;-79
2023/03/04 03:38:47;;;;;;;;;53.33;37.00;;;;;;;;5082545;28;61722;-79
2023/03/04 03:41:13;;;;;;;;;45.67;35.00;;;;;;;;5083057;28;61723;-79
2023/03/04 03:43:38;;;;;;;;;59.33;40.33;;;;;;;;5083150;28;61737;-79
2023/03/04 03:46:03;;;;;;;;;52.33;38.33;;;;;;;;5083302;28;61965;-78
2023/03/04 03:48:28;;;;;;;;;61.67;41.00;;;;;;;;5063993;28;63785;-78
2023/03/04 03:50:54;;;;;;;;;46.25;36.00;;;;;;;;5082980;27;61924;-78
2023/03/04 03:53:19;;;;;;;;;52.33;41.00;;;;;;;;5064664;28;62065;-78
2023/03/04 03:55:44;;;;;;;;;56.33;40.67;;;;;;;;5064429;28;62066;-78
2023/03/04 03:58:10;;;;;;;;;60.00;39.00;;;;;;;;5082351;27;61986;-78
2023/03/04 04:00:35;;;;;;;;;45.33;37.33;;;;;;;;5082630;28;61722;-78
2023/03/04 04:03:00;;;;;;;;;59.67;39.67;;;;;;;;5082602;28;61974;-78
2023/03/04 04:05:26;;;;;;;;;43.00;37.00;;;;;;;;5083088;28;62044;-78
2023/03/04 04:07:51;;;;;;;;;54.33;43.33;;;;;;;;5081975;28;63093;-78
2023/03/04 04:10:16;;;;;;;;;40.67;31.33;;;;;;;;5063771;27;61751;-78
2023/03/04 04:12:42;;;;;;;;;43.67;38.33;;;;;;;;5064379;28;61944;-78
2023/03/04 04:15:09;;;;;;;;;54.50;39.75;;;;;;;;5064880;28;61997;-78
2023/03/04 04:17:34;;;;;;;;;51.00;40.00;;;;;;;;5081724;28;62066;-78
2023/03/04 04:20:00;;;;;;;;;42.67;33.00;;;;;;;;5064193;28;61740;-78
2023/03/04 04:22:25;;;;;;;;;44.67;33.67;;;;;;;;5064427;28;61889;-78
2023/03/04 04:24:50;;;;;;;;;51.67;36.33;;;;;;;;5064243;27;61747;-78
2023/03/04 04:27:16;;;;;;;;;59.67;41.00;;;;;;;;5081816;27;61984;-78
2023/03/04 04:29:41;;;;;;;;;46.25;37.75;;;;;;;;5082313;28;61687;-78
2023/03/04 04:32:07;;;;;;;;;40.67;35.67;;;;;;;;5063640;28;61731;-78
2023/03/04 04:34:33;;;;;;;;;49.00;36.67;;;;;;;;5082841;28;61777;-78
2023/03/04 04:36:58;;;;;;;;;54.33;38.67;;;;;;;;5063494;28;64621;-78
2023/03/04 04:39:23;;;;;;;;;54.33;41.00;;;;;;;;5082094;28;61880;-78
2023/03/04 04:41:48;;;;;;;;;38.00;32.33;;;;;;;;5082414;28;61979;-78
2023/03/04 04:44:14;;;;;;;;;53.67;34.67;;;;;;;;5082231;28;62057;-78
2023/03/04 04:46:40;;;;;;;;;49.67;35.67;;;;;;;;5063275;28;63726;-78
2023/03/04 04:49:05;;;;;;;;;61.67;41.33;;;;;;;;5063884;28;61884;-78
2023/03/04 04:51:31;;;;;;;;;38.67;29.67;;;;;;;;5063954;28;61937;-78
2023/03/04 04:53:57;;;;;;;;;63.67;44.00;;;;;;;;5082092;28;61969;-78
2023/03/04 04:56:25;;;;;;;;;54.33;40.67;;;;;;;;5081226;28;61959;-78
2023/03/04 04:58:51;;;;;;;;;47.67;36.67;;;;;;;;5082135;28;61887;-78
2023/03/04 05:01:16;;;;;;;;;46.67;37.67;;;;;;;;5063472;28;61818;-78
2023/03/04 05:03:41;;;;;;;;;39.00;25.67;;;;;;;;5063933;28;61952;-78
2023/03/04 05:06:08;;;;;;;;;55.67;43.00;;;;;;;;5063094;28;63891;-78
2023/03/04 05:08:33;;;;;;;;;59.00;42.00;;;;;;;;5063770;28;61901;-78
2023/03/04 05:10:58;;;;;;;;;41.33;36.67;;;;;;;;5063259;28;61762;-78
2023/03/04 05:13:24;;;;;;;;;45.00;41.33;;;;;;;;5063694;28;62061;-78
2023/03/04 05:15:53;;;;;;;;;59.00;41.67;;;;;;;;5063164;28;64777;-78
2023/03/04 05:18:19;;;;;;;;;56.67;41.00;;;;;;;;5081747;28;61758;-78
2023/03/04 05:20:48;;;;;;;;;41.33;35.00;;;;;;;;5082630;28;61807;-78
2023/03/04 05:23:13;;;;;;;;;53.00;44.00;;;;;;;;5085348;27;61892;-78
2023/03/04 05:25:39;;;;;;;;;48.67;39.33;;;;;;;;5066080;28;63914;-78
2023/03/04 05:28:06;;;;;;;;;45.67;37.33;;;;;;;;5066944;28;62274;-78
2023/03/04 05:30:31;;;;;;;;;54.33;42.00;;;;;;;;5085092;28;61943;-78
2023/03/04 05:32:56;;;;;;;;;58.67;42.00;;;;;;;;5085044;27;61860;-78
2023/03/04 05:35:22;;;;;;;;;56.67;39.67;;;;;;;;5084521;28;61903;-78
2023/03/04 05:37:47;;;;;;;;;66.67;39.33;;;;;;;;5085154;28;61828;-78
2023/03/04 05:40:12;;;;;;;;;53.33;37.00;;;;;;;;5066509;28;62010;-78
2023/03/04 05:42:37;;;;;;;;;60.67;46.67;;;;;;;;5066900;28;61805;-78
2023/03/04 05:45:03;;;;;;;;;66.33;39.33;;;;;;;;5065955;27;64773;-78
2023/03/04 05:47:28;;;;;;;;;59.00;39.33;;;;;;;;5084707;27;62114;-78
2023/03/04 05:49:53;;;;;;;;;53.67;42.00;;;;;;;;5066686;28;61923;-78
2023/03/04 05:52:19;;;;;;;;;49.67;34.00;;;;;;;;5084933;27;61953;-78
2023/03/04 05:54:44;;;;;;;;;54.33;41.00;;;;;;;;5065753;28;63747;-78
2023/03/04 05:57:09;;;;;;;;;48.00;37.67;;;;;;;;5084805;27;61852;-79
2023/03/04 05:59:34;;;;;;;;;35.00;31.67;;;;;;;;5066160;27;61970;-79
2023/03/04 06:02:00;;;;;;;;;51.00;35.33;;;;;;;;5066529;28;61760;-79
2023/03/04 06:04:25;;;;;;;;;62.33;38.00;;;;;;;;5065864;28;63942;-79
2023/03/04 06:06:50;;;;;;;;;50.67;37.33;;;;;;;;5084760;27;61908;-79
2023/03/04 06:09:15;;;;;;;;;62.67;44.33;;;;;;;;5084326;27;61648;-79
2023/03/04 06:11:41;;;;;;;;;60.67;42.33;;;;;;;;5084994;27;62282;-79
2023/03/04 06:14:06;;;;;;;;;52.00;39.33;;;;;;;;5083514;28;62906;-79
2023/03/04 06:16:37;;;;;;;;;47.00;38.33;;;;;;;;5084558;27;61836;-79
2023/03/04 06:19:03;;;;;;;;;59.33;41.33;;;;;;;;5084764;28;61822;-79
2023/03/04 06:21:28;;;;;;;;;57.67;40.33;;;;;;;;5084591;28;62042;-79
2023/03/04 06:23:53;;;;;;;;;58.00;34.67;;;;;;;;5065504;28;64799;-78
2023/03/04 06:26:19;;;;;;;;;49.33;36.33;;;;;;;;5069247;28;61956;-78
2023/03/04 06:28:44;;;;;;;;;63.33;38.67;;;;;;;;5083762;27;61741;-78
2023/03/04 06:31:10;;;;;;;;;53.33;42.00;;;;;;;;5084062;27;61781;-78
2023/03/04 06:33:35;;;;;;;;;45.00;38.33;;;;;;;;5065061;28;64873;-78
2023/03/04 06:36:01;;;;;;;;;48.00;37.00;;;;;;;;5084347;28;61758;-78
2023/03/04 06:38:26;;;;;;;;;44.33;36.33;;;;;;;;5084179;27;61684;-78
2023/03/04 06:40:52;;;;;;;;;58.33;41.33;;;;;;;;5083883;27;62039;-78
2023/03/04 06:43:17;;;;;;;;;45.67;37.67;;;;;;;;5065027;28;65004;-78
2023/03/04 06:45:43;;;;;;;;;54.00;37.00;;;;;;;;5065764;28;61757;-78
2023/03/04 06:48:08;;;;;;;;;58.67;43.67;;;;;;;;5084022;27;61952;-78
2023/03/04 06:50:34;;;;;;;;;49.67;42.00;;;;;;;;5084042;28;61679;-78
2023/03/04 06:52:59;;;;;;;;;58.00;36.33;;;;;;;;5064911;27;64270;-78
2023/03/04 06:55:24;;;;;;;;;53.33;38.67;;;;;;;;5083496;27;61969;-78
2023/03/04 06:57:49;;;;;;;;;58.67;40.33;;;;;;;;5065517;28;61880;-78
2023/03/04 07:00:15;;;;;;;;;58.33;39.00;;;;;;;;5065414;28;61909;-78
2023/03/04 07:02:40;;;;;;;;;41.33;36.00;;;;;;;;5064525;27;64739;-78
2023/03/04 07:05:06;;;;;;;;;65.00;40.00;;;;;;;;5083873;28;61940;-78
2023/03/04 07:07:31;;;;;;;;;39.33;32.33;;;;;;;;5083497;27;61805;-78
2023/03/04 07:09:57;;;;;;;;;48.00;35.00;;;;;;;;5083380;28;62094;-78
2023/03/04 07:12:22;;;;;;;;;43.33;35.00;;;;;;;;5082830;27;61856;-78
2023/03/04 07:14:47;;;;;;;;;55.67;36.67;;;;;;;;5083363;28;61791;-78
2023/03/04 07:17:13;;;;;;;;;46.00;35.00;;;;;;;;5065382;28;61901;-78
2023/03/04 07:19:39;;;;;;;;;46.00;36.00;;;;;;;;5083532;27;62185;-78
2023/03/04 07:22:04;;;;;;;;;37.50;33.50;;;;;;;;5082754;27;61895;-78
2023/03/04 07:24:30;;;;;;;;;40.00;34.33;;;;;;;;5082938;28;61865;-78
2023/03/04 07:26:55;;;;;;;;;40.33;34.33;;;;;;;;5068561;27;61880;-78
2023/03/04 07:29:20;;;;;;;;;41.75;38.25;;;;;;;;5064863;27;61789;-78
2023/03/04 07:31:45;;;;;;;;;54.67;34.33;;;;;;;;5060830;28;64824;-80
2023/03/04 07:34:12;;;;;;;;;48.33;36.00;;;;;;;;5062912;28;61937;-80
2023/03/04 07:36:39;;;;;;;;;52.00;33.67;;;;;;;;5062788;28;61793;-80
2023/03/04 07:39:04;;;;;;;;;53.00;39.00;;;;;;;;5063188;28;61711;-80
2023/03/04 07:41:31;;;;;;;;;33.00;22.25;;;;;;;;5060413;28;63381;-80
2023/03/04 07:43:57;;;;;;;;;54.00;38.75;;;;;;;;5062004;28;61893;-79
2023/03/04 07:46:22;;;;;;;;;42.00;31.67;;;;;;;;5061703;28;61835;-79
2023/03/04 07:48:47;;;;;;;;;60.00;38.67;;;;;;;;5061419;28;61826;-79
2023/03/04 07:51:14;;;;;;;;;46.67;35.67;;;;;;;;5062155;28;63203;-79
2023/03/04 07:53:40;;;;;;;;;39.50;34.50;;;;;;;;5062495;28;61802;-79
2023/03/04 07:56:06;;;;;;;;;43.33;37.67;;;;;;;;5060809;28;61905;-79
2023/03/04 07:58:32;;;;;;;;;50.33;39.67;;;;;;;;5061380;28;61806;-79
2023/03/04 08:00:57;;;;;;;;;43.00;38.00;;;;;;;;5060606;28;64120;-79
2023/03/04 08:03:23;;;;;;;;;51.33;38.00;;;;;;;;5061141;28;61893;-79
2023/03/04 08:05:48;;;;;;;;;55.00;37.00;;;;;;;;5062804;28;61700;-79
2023/03/04 08:08:13;;;;;;;;;48.67;38.67;;;;;;;;5061330;28;62192;-79
2023/03/04 08:10:38;;;;;;;;;43.00;31.33;;;;;;;;5059754;28;64794;-80
2023/03/04 08:13:07;;;;;;;;;47.33;37.67;;;;;;;;5060891;28;61880;-79
2023/03/04 08:15:34;;;;;;;;;58.00;40.67;;;;;;;;5061193;28;61881;-78
2023/03/04 08:17:59;;;;;;;;;47.67;40.33;;;;;;;;5062441;28;62060;-79
2023/03/04 08:20:25;;;;;;;;;55.67;43.00;;;;;;;;5060009;28;65142;-80
2023/03/04 08:22:50;;;;;;;;;53.00;41.67;;;;;;;;5056148;28;61757;-80
2023/03/04 08:25:15;;;;;;;;;55.00;39.00;;;;;;;;5060502;28;61617;-80
2023/03/04 08:27:41;;;;;;;;;44.67;39.00;;;;;;;;5053428;28;61772;-80
2023/03/04 08:30:07;;;;;;;;;58.33;40.33;;;;;;;;5039757;28;63443;-80
2023/03/04 08:32:32;;;;;;;;;40.00;36.00;;;;;;;;5055458;28;61681;-80
2023/03/04 08:34:57;;;;;;;;;58.33;39.00;;;;;;;;5043999;28;62203;-80
2023/03/04 08:37:23;;;;;;;;;63.33;39.00;;;;;;;;5047000;28;62147;-80
2023/03/04 08:39:48;;;;;;;;;45.00;34.67;;;;;;;;5075417;28;63199;-80
2023/03/04 08:42:14;;;;;;;;;57.00;39.00;;;;;;;;5082328;27;62053;-81
2023/03/04 08:44:39;;;;;;;;;48.00;34.25;;;;;;;;5082509;28;61898;-80
2023/03/04 08:47:08;;;;;;;;;46.00;36.50;;;;;;;;5082610;28;61720;-80
2023/03/04 08:49:33;;;;;;;;;41.25;33.25;;;;;;;;5081795;28;62260;-80
2023/03/04 08:51:58;;;;;;;;;47.50;36.50;;;;;;;;5063894;28;62616;-80
2023/03/04 08:54:23;;;;;;;;;37.25;28.75;;;;;;;;5063955;28;61905;-80
2023/03/04 08:56:49;;;;;;;;;44.75;36.75;;;;;;;;5067665;28;62236;-80
2023/03/04 08:59:14;;;;;;;;;43.75;31.50;;;;;;;;5066662;28;63820;-80
2023/03/04 09:01:39;;;;;;;;;37.50;32.00;;;;;;;;5085953;27;61828;-80
2023/03/04 09:04:04;;;;;;;;;36.25;32.75;;;;;;;;5063970;27;61867;-81
2023/03/04 09:06:30;;;;;;;;;41.25;33.50;;;;;;;;5065992;28;62058;-80
2023/03/04 09:08:55;;;;;;;;;46.50;38.75;;;;;;;;5082601;27;61865;-84
2023/03/04 09:11:20;;;;;;;;;41.25;35.50;;;;;;;;5066518;28;62267;-81
2023/03/04 09:13:46;;;;;;;;;54.00;40.25;;;;;;;;5066670;28;61816;-79
2023/03/04 09:16:12;;;;;;;;;40.75;34.00;;;;;;;;5085554;27;61671;-78
2023/03/04 09:18:38;;;;;;;;;51.50;36.25;;;;;;;;5084975;28;63268;-79
2023/03/04 09:21:04;;;;;;;;;37.75;31.25;;;;;;;;5085120;27;61700;-79
2023/03/04 09:23:29;;;;;;;;;51.00;37.25;;;;;;;;5085110;27;61664;-79
2023/03/04 09:25:54;;;;;;;;;50.25;40.00;;;;;;;;5085004;27;61801;-79
2023/03/04 09:28:19;;;;;;;;;51.25;38.75;;;;;;;;5084663;27;62111;-79
2023/03/04 09:30:45;;;;;;;;;45.50;32.75;;;;;;;;5066616;27;61773;-79
2023/03/04 09:33:10;;;;;;;;;39.00;31.25;;;;;;;;5066776;28;61874;-79
2023/03/04 09:35:35;;;;;;;;;46.25;37.50;;;;;;;;5066961;28;61912;-79
2023/03/04 09:38:01;;;;;;;;;39.00;30.75;;;;;;;;5065947;27;63379;-79
2023/03/04 09:40:31;;;;;;;;;29.75;20.75;;;;;;;;5066319;28;61884;-79
2023/03/04 09:43:02;;;;;;;;;34.00;27.50;;;;;;;;5085053;28;61873;-79
2023/03/04 09:45:33;;;;;;;;;36.50;23.25;;;;;;;;5085189;27;61738;-78
2023/03/04 09:47:59;;;;;;;;;35.00;23.75;;;;;;;;5084496;28;61805;-80
2023/03/04 09:50:25;;;;;;;;;31.75;24.75;;;;;;;;5066491;28;62388;-79
2023/03/04 09:53:05;;;;;;;;;36.00;27.00;;;;;;;;5084644;27;61754;-79
2023/03/04 09:55:34;;;;;;;;;37.00;24.25;;;;;;;;5066449;27;62039;-79
2023/03/04 09:58:02;;;;;;;;;30.25;24.50;;;;;;;;5066181;28;63517;-79
2023/03/04 10:00:38;;;;;;;;;39.50;22.00;;;;;;;;5066141;28;61977;-79
2023/03/04 10:03:08;;;;;;;;;23.25;19.75;;;;;;;;5066647;28;61791;-79
2023/03/04 10:05:36;;;;;;;;;26.75;19.50;;;;;;;;5084744;27;61812;-79
2023/03/04 10:08:14;;;;;;;;;28.25;19.75;;;;;;;;5083402;28;62945;-79
2023/03/04 10:10:42;;;;;;;;;21.50;15.00;;;;;;;;5065797;28;61954;-79
2023/03/04 10:13:13;;;;;;;;;24.75;16.50;;;;;;;;5084641;27;61868;-79
2023/03/04 10:15:40;;;;;;;;;23.50;15.75;;;;;;;;5066584;28;61833;-79
2023/03/04 10:18:25;;;;;;;;;25.25;19.75;;;;;;;;5083727;28;62855;-79
2023/03/04 10:21:20;;;;;;;;;23.75;17.25;;;;;;;;5083754;27;61898;-79
2023/03/04 10:23:46;;;;;;;;;21.50;16.00;;;;;;;;5048633;28;61821;-79
2023/03/04 10:26:13;;;;;;;;;12.00;10.75;;;;;;;;5069109;28;61710;-79
2023/03/04 10:28:39;;;;;;;;;21.00;15.75;;;;;;;;5083354;27;62241;-78
2023/03/04 10:31:04;;;;;;;;;23.25;11.50;;;;;;;;5084282;28;61928;-78
2023/03/04 10:33:31;;;;;;;;;13.75;12.75;;;;;;;;5065576;28;61796;-78
2023/03/04 10:35:59;;;;;;;;;23.25;15.25;;;;;;;;5084590;27;61789;-78
2023/03/04 10:38:25;;;;;;;;;19.50;15.50;;;;;;;;5083509;27;62076;-78
2023/03/04 10:40:50;;;;;;;;;12.75;9.25;;;;;;;;5065727;28;62211;-78
2023/03/04 10:43:19;;;;;;;;;14.50;11.00;;;;;;;;5065771;27;61968;-78
2023/03/04 10:45:46;;;;;;;;;11.00;11.00;;;;;;;;5066101;28;61688;-78
2023/03/04 10:48:22;;;;;;;;;20.00;12.00;;;;;;;;5083211;27;61829;-78
2023/03/04 10:50:48;;;;;;;;;20.75;16.25;;;;;;;;5065886;28;61846;-78
2023/03/04 10:53:32;;;;;;;;;10.50;7.25;;;;;;;;5065484;28;62454;-78
2023/03/04 10:55:57;;;;;;;;;13.00;12.00;;;;;;;;5083937;28;62004;-78
2023/03/04 10:58:22;;;;;;;;;13.75;11.00;;;;;;;;5083518;27;63008;-77
2023/03/04 11:01:05;;;;;;;;;15.25;11.50;;;;;;;;5083562;27;61777;-78
2023/03/04 11:03:35;;;;;;;;;15.25;11.75;;;;;;;;5065276;28;61903;-78
2023/03/04 11:06:06;;;;;;;;;14.75;7.00;;;;;;;;5083851;27;61870;-78
2023/03/04 11:08:32;;;;;;;;;12.75;9.75;;;;;;;;5083188;28;61984;-78
2023/03/04 11:10:57;;;;;;;;;15.75;7.50;;;;;;;;5083319;27;61953;-78
2023/03/04 11:13:23;;;;;;;;;23.25;16.50;;;;;;;;5083396;28;61893;-78
2023/03/04 11:16:00;;;;;;;;;17.50;14.75;;;;;;;;5065541;28;62194;-78
2023/03/04 11:18:38;;;;;;;;;14.75;8.00;;;;;;;;5081896;27;61865;-78
2023/03/04 11:21:04;;;;;;;;;13.00;9.50;;;;;;;;5065345;28;61746;-79
2023/03/04 11:23:42;;;;;;;;;18.25;12.00;;;;;;;;5065079;28;62030;-78
2023/03/04 11:26:11;;;;;;;;;20.50;12.00;;;;;;;;5083252;28;61784;-78
2023/03/04 11:28:43;;;;;;;;;16.00;12.25;;;;;;;;5082298;27;61701;-78
2023/03/04 11:31:12;;;;;;;;;15.25;12.50;;;;;;;;5064828;28;61945;-78
2023/03/04 11:33:45;;;;;;;;;18.75;12.75;;;;;;;;5064680;28;61897;-78
2023/03/04 11:36:10;;;;;;;;;10.25;6.75;;;;;;;;5065290;27;61792;-78
2023/03/04 11:38:38;;;;;;;;;13.50;8.25;;;;;;;;5082610;27;61773;-78
2023/03/04 11:41:09;;;;;;;;;16.00;12.75;;;;;;;;5082803;27;61900;-78
2023/03/04 11:43:36;;;;;;;;;17.75;12.25;;;;;;;;5064935;28;62038;-78
2023/03/04 11:46:24;;;;;;;;;21.00;13.50;;;;;;;;5083145;27;62134;-78
2023/03/04 11:48:53;;;;;;;;;15.75;11.00;;;;;;;;5064166;27;64071;-78
2023/03/04 11:51:19;;;;;;;;;10.50;9.25;;;;;;;;5064805;28;61742;-78
2023/03/04 11:53:50;;;;;;;;;20.00;11.00;;;;;;;;5082825;28;61785;-78
2023/03/04 11:56:23;;;;;;;;;19.50;16.00;;;;;;;;5082789;27;62015;-78
2023/03/04 11:59:01;;;;;;;;;23.25;17.00;;;;;;;;5063868;28;63601;-76
2023/03/04 12:01:36;;;;;;;;;19.00;15.00;;;;;;;;5064349;28;61743;-75
2023/03/04 12:04:16;;;;;;;;;16.75;13.00;;;;;;;;5064441;28;61856;-77
2023/03/04 12:06:57;;;;;;;;;20.75;13.75;;;;;;;;5064861;27;62121;-76
2023/03/04 12:09:28;;;;;;;;;17.25;8.75;;;;;;;;5063899;28;64942;-75
2023/03/04 12:11:54;;;;;;;;;23.25;14.00;;;;;;;;5082391;28;62175;-76
2023/03/04 12:14:23;;;;;;;;;12.75;12.00;;;;;;;;5064606;28;61918;-76
2023/03/04 12:16:52;;;;;;;;;11.75;9.25;;;;;;;;5082742;28;62097;-78
2023/03/04 12:19:20;;;;;;;;;16.50;12.75;;;;;;;;5082141;28;62018;-78
2023/03/04 12:22:01;;;;;;;;;13.00;7.50;;;;;;;;5082894;27;61907;-79
2023/03/04 12:24:29;;;;;;;;;11.50;10.00;;;;;;;;5064333;28;61878;-79
2023/03/04 12:27:08;;;;;;;;;17.50;12.25;;;;;;;;5082292;28;61679;-79
2023/03/04 12:29:34;;;;;;;;;18.25;9.50;;;;;;;;5064760;27;63132;-79
2023/03/04 12:32:11;;;;;;;;;18.00;16.50;;;;;;;;5089133;27;61789;-80
2023/03/04 12:34:51;;;;;;;;;16.00;12.50;;;;;;;;5070835;28;61827;-78
2023/03/04 12:37:42;;;;;;;;;11.50;8.25;;;;;;;;5070932;28;62140;-79
2023/03/04 12:40:27;;;;;;;;;9.00;8.00;;;;;;;;5065687;27;65167;-78
2023/03/04 12:42:58;;;;;;;;;9.75;7.00;;;;;;;;5089306;27;61809;-78
2023/03/04 12:45:24;;;;;;;;;15.25;7.75;;;;;;;;5070742;27;61853;-79
2023/03/04 12:47:49;;;;;;;;;12.50;9.75;;;;;;;;5071153;28;62092;-78
2023/03/04 12:50:20;;;;;;;;;17.25;11.00;;;;;;;;5070072;27;64899;-79
2023/03/04 12:53:04;;;;;;;;;11.50;8.00;;;;;;;;5088969;27;61801;-78
2023/03/04 12:55:37;;;;;;;;;11.75;8.25;;;;;;;;5088776;27;62007;-79
2023/03/04 12:58:04;;;;;;;;;9.25;6.25;;;;;;;;5089336;27;62082;-79
2023/03/04 13:00:41;;;;;;;;;12.50;10.50;;;;;;;;5088066;27;61845;-79
2023/03/04 13:03:25;;;;;;;;;11.00;8.25;;;;;;;;5089052;27;61963;-79
2023/03/04 13:06:11;;;;;;;;;9.00;8.00;;;;;;;;5089042;27;61862;-79
2023/03/04 13:08:37;;;;;;;;;9.50;7.00;;;;;;;;5070923;28;61877;-79
2023/03/04 13:11:22;;;;;;;;;16.75;11.00;;;;;;;;5069783;28;65022;-79
2023/03/04 13:13:59;;;;;;;;;17.50;12.00;;;;;;;;5069993;28;62320;-79
2023/03/04 13:16:33;;;;;;;;;10.75;5.50;;;;;;;;5088769;27;61990;-79
2023/03/04 13:18:59;;;;;;;;;11.75;9.75;;;;;;;;5070523;28;62067;-79
2023/03/04 13:21:26;;;;;;;;;11.00;7.00;;;;;;;;5087936;27;62828;-79
2023/03/04 13:23:52;;;;;;;;;16.25;14.25;;;;;;;;5088778;27;61818;-78
2023/03/04 13:26:20;;;;;;;;;9.25;7.00;;;;;;;;5069813;27;61940;-78
2023/03/04 13:28:45;;;;;;;;;17.75;7.50;;;;;;;;5088335;27;62017;-78
2023/03/04 13:31:15;;;;;;;;;12.25;9.25;;;;;;;;5069432;28;63697;-81
2023/03/04 13:33:41;;;;;;;;;16.00;9.50;;;;;;;;5070134;27;61912;-78
2023/03/04 13:36:25;;;;;;;;;14.50;8.25;;;;;;;;5088721;27;61700;-78
2023/03/04 13:39:09;;;;;;;;;6.75;6.00;;;;;;;;5070439;27;61932;-79
2023/03/04 13:41:47;;;;;;;;;12.50;8.00;;;;;;;;5084810;27;61920;-79
2023/03/04 13:44:30;;;;;;;;;13.25;7.25;;;;;;;;5066298;28;61906;-79
2023/03/04 13:46:56;;;;;;;;;8.00;6.75;;;;;;;;5085938;27;61762;-77
2023/03/04 13:49:23;;;;;;;;;11.00;9.25;;;;;;;;5066920;27;62009;-78
2023/03/04 13:51:49;;;;;;;;;17.00;6.75;;;;;;;;5084426;27;61849;-78
2023/03/04 13:54:25;;;;;;;;;13.50;9.25;;;;;;;;5084859;27;61695;-78
2023/03/04 13:56:59;;;;;;;;;6.00;6.00;;;;;;;;5084461;28;61957;-78
2023/03/04 13:59:27;;;;;;;;;12.75;7.00;;;;;;;;5084543;28;61864;-78
2023/03/04 14:01:56;;;;;;;;;6.50;6.50;;;;;;;;5065832;28;64932;-79
2023/03/04 14:04:23;;;;;;;;;10.00;8.25;;;;;;;;5066445;28;62112;-78
2023/03/04 14:06:53;;;;;;;;;7.25;7.25;;;;;;;;5059078;28;62528;-80
2023/03/04 14:09:26;;;;;;;;;8.50;8.50;;;;;;;;5078721;28;61954;-79
2023/03/04 14:11:52;;;;;;;;;11.25;7.50;;;;;;;;5083137;28;62119;-79
2023/03/04 14:14:20;;;;;;;;;9.75;8.00;;;;;;;;5065505;28;61946;-78
2023/03/04 14:17:05;;;;;;;;;8.00;6.00;;;;;;;;5084204;27;62000;-78
2023/03/04 14:19:30;;;;;;;;;6.25;6.00;;;;;;;;5064785;28;61833;-78
2023/03/04 14:21:56;;;;;;;;;6.75;5.00;;;;;;;;5083342;28;62004;-79